Time;durP1;ratioP1;P1;durP2;ratioP2;P2;SDS_P1;SDS_P2;PMS_P1;PMS_P2;Temp;Humidity;BMP_temperature;BMP_pressure;BME280_temperature;BME280_humidity;BME280_pressure;Samples;Min_cycle;Max_cycle;Signal;HPM_P1;HPM_P2
2022/01/17 00:01:50;;;;;;;82.73;40.33;;;5.70;99.90;;;;;;5162500;27;20177;-84
2022/01/17 00:05:02;;;;;;;96.30;42.83;;;5.70;99.90;;;;;;5174209;27;20185;-94
2022/01/17 00:07:45;;;;;;;88.47;41.03;;;5.80;99.90;;;;;;5162673;27;20193;-94
2022/01/17 00:10:12;;;;;;;92.33;41.30;;;5.70;99.90;;;;;;5143825;27;20169;-88
2022/01/17 00:12:44;;;;;;;85.90;40.77;;;5.70;99.90;;;;;;5166228;27;20169;-84
2022/01/17 00:15:31;;;;;;;87.07;41.57;;;5.70;99.90;;;;;;5175266;27;20157;-87
2022/01/17 00:20:46;;;;;;;85.77;41.63;;;5.70;99.90;;;;;;5159122;27;20179;-83
2022/01/17 00:23:23;;;;;;;91.63;41.57;;;5.90;99.90;;;;;;5144081;27;20170;-84
2022/01/17 00:25:49;;;;;;;88.33;41.37;;;5.80;99.90;;;;;;5139281;27;20158;-82
2022/01/17 00:28:14;;;;;;;90.53;40.40;;;5.80;99.90;;;;;;5157905;27;20268;-82
2022/01/17 00:30:40;;;;;;;89.57;41.13;;;5.70;99.90;;;;;;5157505;27;20218;-92
2022/01/17 00:33:07;;;;;;;92.10;43.23;;;5.80;99.90;;;;;;5156110;27;20194;-84
2022/01/17 00:35:36;;;;;;;101.90;42.43;;;5.90;99.90;;;;;;5153192;27;20189;-92
2022/01/17 00:41:29;;;;;;;95.47;42.30;;;5.70;99.90;;;;;;5171970;27;20197;-84
2022/01/17 00:43:55;;;;;;;88.77;40.87;;;5.70;99.90;;;;;;5146676;27;20189;-95
2022/01/17 00:46:21;;;;;;;91.93;42.40;;;5.70;99.90;;;;;;5167744;27;20532;-94
2022/01/17 00:48:47;;;;;;;87.50;42.40;;;5.90;99.90;;;;;;5137579;27;20157;-82
2022/01/17 00:51:12;;;;;;;93.60;41.10;;;5.90;99.90;;;;;;5152449;27;20257;-84
2022/01/17 00:53:40;;;;;;;90.47;42.00;;;5.80;99.90;;;;;;5146336;27;20649;-94
2022/01/17 00:56:07;;;;;;;97.40;41.70;;;5.90;99.90;;;;;;5161883;27;20556;-93
2022/01/17 00:58:36;;;;;;;93.00;42.53;;;5.90;99.90;;;;;;5141300;27;20187;-95
2022/01/17 01:01:08;;;;;;;90.57;42.03;;;5.90;99.90;;;;;;5143804;27;20165;-94
2022/01/17 01:04:03;;;;;;;89.93;40.47;;;6.00;99.90;;;;;;5166934;27;20196;-94
2022/01/17 01:06:31;;;;;;;86.00;40.63;;;5.90;99.90;;;;;;5157384;27;20190;-84
2022/01/17 01:08:58;;;;;;;88.27;39.93;;;5.80;99.90;;;;;;5159652;27;20200;-88
2022/01/17 01:11:24;;;;;;;77.73;39.30;;;5.80;99.90;;;;;;5157120;27;20260;-94
2022/01/17 01:17:30;;;;;;;75.50;37.77;;;5.90;99.90;;;;;;5170919;27;20213;-87
2022/01/17 01:20:05;;;;;;;84.80;39.60;;;5.80;99.90;;;;;;5161937;27;20225;-82
2022/01/17 01:28:25;;;;;;;82.37;38.63;;;5.80;99.90;;;;;;5159352;27;20643;-94
2022/01/17 01:30:59;;;;;;;84.00;37.67;;;6.10;99.90;;;;;;5158004;27;20237;-94
2022/01/17 01:33:30;;;;;;;90.03;40.67;;;6.10;99.90;;;;;;5158779;27;20177;-94
2022/01/17 01:36:07;;;;;;;81.10;38.83;;;6.10;99.90;;;;;;5140763;27;20517;-94
2022/01/17 01:38:33;;;;;;;82.80;39.60;;;6.10;99.90;;;;;;5160204;27;20150;-88
2022/01/17 01:41:00;;;;;;;81.27;38.07;;;6.10;99.90;;;;;;5161354;27;20208;-85
2022/01/17 01:43:26;;;;;;;76.30;37.97;;;6.10;99.90;;;;;;5157840;27;20168;-83
2022/01/17 01:45:58;;;;;;;74.73;37.17;;;6.00;99.90;;;;;;5172855;27;20225;-83
2022/01/17 01:48:23;;;;;;;74.37;38.00;;;6.10;99.90;;;;;;5170740;27;20158;-83
2022/01/17 01:50:49;;;;;;;72.50;37.77;;;6.00;99.90;;;;;;5152738;27;20180;-88
2022/01/17 01:53:15;;;;;;;80.57;37.27;;;5.90;99.90;;;;;;5136468;27;20182;-85
2022/01/17 01:55:41;;;;;;;73.03;37.77;;;5.90;99.90;;;;;;5155637;27;20193;-87
2022/01/17 01:58:08;;;;;;;74.00;37.57;;;5.90;99.90;;;;;;5151795;27;20162;-83
2022/01/17 02:00:34;;;;;;;70.77;36.83;;;5.90;99.90;;;;;;5135227;27;20200;-94
2022/01/17 02:03:00;;;;;;;68.87;37.17;;;6.00;99.90;;;;;;5149376;27;20219;-84
2022/01/17 02:05:25;;;;;;;75.83;38.23;;;6.10;99.90;;;;;;5154017;27;20158;-83
2022/01/17 02:07:52;;;;;;;70.03;35.70;;;6.10;99.90;;;;;;5158234;27;20227;-94
2022/01/17 02:10:19;;;;;;;69.60;36.67;;;6.00;99.90;;;;;;5165957;27;20162;-93
2022/01/17 02:12:46;;;;;;;72.00;37.93;;;6.00;99.90;;;;;;5156054;27;20233;-84
2022/01/17 02:15:20;;;;;;;69.10;37.00;;;6.00;99.90;;;;;;5165174;27;20186;-84
2022/01/17 02:17:53;;;;;;;72.40;37.13;;;6.00;99.90;;;;;;5160154;27;20184;-94
2022/01/17 02:20:29;;;;;;;71.97;38.17;;;5.90;99.90;;;;;;5144470;27;20230;-87
2022/01/17 02:22:55;;;;;;;65.77;35.63;;;6.00;99.90;;;;;;5154674;27;20174;-87
2022/01/17 02:25:21;;;;;;;65.07;36.43;;;6.00;99.90;;;;;;5162089;27;20162;-91
2022/01/17 02:27:48;;;;;;;65.27;37.13;;;6.00;99.90;;;;;;5182858;27;20192;-81
2022/01/17 02:30:21;;;;;;;60.27;35.50;;;6.00;99.90;;;;;;5165502;27;20196;-82
2022/01/17 02:32:53;;;;;;;62.40;35.60;;;5.90;99.90;;;;;;5183144;27;20149;-80
2022/01/17 02:35:32;;;;;;;71.07;38.03;;;6.10;99.90;;;;;;5183327;27;20169;-84
2022/01/17 02:37:58;;;;;;;65.67;36.13;;;6.00;99.90;;;;;;5162933;27;20175;-87
2022/01/17 02:40:25;;;;;;;63.50;35.57;;;6.10;99.90;;;;;;5159834;27;20174;-92
2022/01/17 02:43:03;;;;;;;62.60;38.07;;;6.10;99.90;;;;;;5144487;27;20182;-94
2022/01/17 02:46:24;;;;;;;66.03;36.97;;;6.10;99.90;;;;;;5143609;27;20179;-94
2022/01/17 02:48:29;;;;;;;66.57;37.83;;;6.20;99.90;;;;;;5161034;27;20234;-91
2022/01/17 02:51:00;;;;;;;65.50;37.83;;;6.30;99.90;;;;;;5142157;27;20178;-92
2022/01/17 02:53:26;;;;;;;66.57;37.33;;;6.40;99.90;;;;;;5149047;27;20169;-93
2022/01/17 02:55:58;;;;;;;67.63;37.93;;;6.30;99.90;;;;;;5150174;27;20173;-85
2022/01/17 02:58:26;;;;;;;64.47;37.03;;;6.30;99.90;;;;;;5154325;27;20291;-91
2022/01/17 03:00:54;;;;;;;64.47;35.93;;;6.40;99.90;;;;;;5164798;27;20185;-93
2022/01/17 03:03:27;;;;;;;64.70;38.93;;;6.30;99.90;;;;;;5144285;27;20237;-96
2022/01/17 03:05:55;;;;;;;66.47;37.57;;;6.30;99.90;;;;;;5143478;27;20181;-95
2022/01/17 03:08:23;;;;;;;57.07;36.00;;;6.30;99.90;;;;;;5142254;27;20184;-94
2022/01/17 03:10:52;;;;;;;58.60;35.70;;;6.30;99.90;;;;;;5123977;27;20664;-96
2022/01/17 03:13:24;;;;;;;56.00;34.33;;;6.40;99.90;;;;;;5124239;27;20178;-95
2022/01/17 03:15:54;;;;;;;58.00;36.03;;;6.30;99.90;;;;;;5124035;27;20221;-94
2022/01/17 03:18:21;;;;;;;54.20;33.63;;;6.30;99.90;;;;;;5141853;27;20204;-95
2022/01/17 03:20:47;;;;;;;54.03;34.40;;;6.30;99.90;;;;;;5161370;27;20173;-95
2022/01/17 03:23:13;;;;;;;54.37;33.67;;;6.20;99.90;;;;;;5163113;27;20166;-95
2022/01/17 03:25:39;;;;;;;52.47;33.57;;;6.30;99.90;;;;;;5147962;27;20181;-95
2022/01/17 03:28:05;;;;;;;53.00;34.13;;;6.20;99.90;;;;;;5149107;27;20182;-83
2022/01/17 03:30:33;;;;;;;52.03;32.93;;;6.20;99.90;;;;;;5158057;27;20226;-93
2022/01/17 03:33:06;;;;;;;56.17;33.40;;;6.20;99.90;;;;;;5145492;27;20645;-96
2022/01/17 03:35:32;;;;;;;55.40;33.67;;;6.20;99.90;;;;;;5151013;27;20165;-88
2022/01/17 03:37:58;;;;;;;53.10;33.47;;;6.20;99.90;;;;;;5171077;27;20532;-93
2022/01/17 03:40:24;;;;;;;51.87;32.37;;;6.20;99.90;;;;;;5144582;27;20192;-85
2022/01/17 03:42:51;;;;;;;57.50;35.30;;;6.30;99.90;;;;;;5153214;27;20153;-86
2022/01/17 03:45:20;;;;;;;51.90;32.90;;;6.30;99.90;;;;;;5176374;27;20206;-88
2022/01/17 03:47:49;;;;;;;54.37;33.50;;;6.30;99.90;;;;;;5159746;27;20232;-81
2022/01/17 03:50:20;;;;;;;55.93;35.23;;;6.30;99.90;;;;;;5154363;27;20169;-82
2022/01/17 03:52:48;;;;;;;56.03;34.70;;;6.40;99.90;;;;;;5153597;27;20206;-93
2022/01/17 03:55:36;;;;;;;54.33;33.93;;;6.30;99.90;;;;;;5171763;27;20196;-82
2022/01/17 03:58:05;;;;;;;55.27;35.03;;;6.20;99.90;;;;;;5152847;27;20176;-90
2022/01/17 04:00:35;;;;;;;54.60;32.97;;;6.30;99.90;;;;;;5158754;27;20297;-81
2022/01/17 04:03:01;;;;;;;51.20;32.20;;;6.20;99.90;;;;;;5150664;27;20185;-83
2022/01/17 04:08:50;;;;;;;53.33;31.87;;;6.20;99.90;;;;;;5180477;27;20172;-81
2022/01/17 04:11:15;;;;;;;52.37;32.60;;;6.30;99.90;;;;;;5176282;27;20162;-83
2022/01/17 04:13:41;;;;;;;58.23;34.93;;;6.30;99.90;;;;;;5172003;27;20644;-92
2022/01/17 04:16:12;;;;;;;60.70;34.33;;;6.30;99.90;;;;;;5143981;27;20165;-95
2022/01/17 04:18:46;;;;;;;54.70;33.93;;;6.40;99.90;;;;;;5160131;27;20161;-86
2022/01/17 04:21:11;;;;;;;56.07;33.73;;;6.20;99.90;;;;;;5141488;27;20182;-89
2022/01/17 04:23:37;;;;;;;61.53;34.80;;;6.20;99.90;;;;;;5168767;27;20302;-92
2022/01/17 04:26:03;;;;;;;56.03;33.23;;;6.20;99.90;;;;;;5163064;27;20181;-85
2022/01/17 04:28:29;;;;;;;58.80;35.03;;;6.20;99.90;;;;;;5162360;27;20150;-83
2022/01/17 04:30:59;;;;;;;57.30;33.77;;;6.30;99.90;;;;;;5177665;27;20162;-83
2022/01/17 04:36:47;;;;;;;64.67;36.93;;;6.40;99.90;;;;;;5167768;27;20202;-82
2022/01/17 04:39:16;;;;;;;65.90;36.53;;;6.70;99.90;;;;;;5159718;27;20217;-89
2022/01/17 04:41:43;;;;;;;60.03;37.07;;;6.50;99.90;;;;;;5144454;27;20162;-81
2022/01/17 04:46:55;;;;;;;64.50;36.10;;;6.30;99.90;;;;;;5171753;27;20233;-86
2022/01/17 04:49:21;;;;;;;70.70;39.13;;;6.30;99.90;;;;;;5134944;27;20189;-92
2022/01/17 04:51:53;;;;;;;70.70;37.50;;;6.40;99.90;;;;;;5153530;27;20173;-91
2022/01/17 04:56:50;;;;;;;71.67;39.07;;;6.40;99.90;;;;;;5171592;27;20658;-82
2022/01/17 04:59:33;;;;;;;66.70;35.90;;;6.40;99.90;;;;;;5153132;27;20177;-88
2022/01/17 05:01:59;;;;;;;69.10;37.67;;;6.30;99.90;;;;;;5135160;27;20180;-90
2022/01/17 05:04:26;;;;;;;66.57;37.17;;;6.20;99.90;;;;;;5152626;27;20185;-82
2022/01/17 05:06:51;;;;;;;66.50;37.53;;;6.20;99.90;;;;;;5153874;27;20202;-82
2022/01/17 05:09:17;;;;;;;70.40;38.33;;;6.40;99.90;;;;;;5137068;27;20149;-82
2022/01/17 05:11:45;;;;;;;72.33;38.73;;;6.30;99.90;;;;;;5159091;27;20162;-80
2022/01/17 05:14:14;;;;;;;77.97;42.07;;;6.40;99.90;;;;;;5158417;27;20233;-82
2022/01/17 05:16:48;;;;;;;89.07;41.83;;;6.50;99.90;;;;;;5147802;27;20249;-91
2022/01/17 05:22:07;;;;;;;82.87;42.07;;;6.30;99.90;;;;;;5175233;27;20324;-85
2022/01/17 05:24:35;;;;;;;88.97;41.37;;;6.40;99.90;;;;;;5157726;27;20249;-83
2022/01/17 05:27:02;;;;;;;83.53;41.90;;;6.40;99.90;;;;;;5159562;27;20201;-81
2022/01/17 05:29:30;;;;;;;89.27;41.97;;;6.40;99.90;;;;;;5172641;27;20166;-83
2022/01/17 05:31:56;;;;;;;91.10;42.80;;;6.40;99.90;;;;;;5148652;27;20185;-81
2022/01/17 05:34:22;;;;;;;87.37;42.93;;;6.40;99.90;;;;;;5134659;27;20170;-89
2022/01/17 05:36:47;;;;;;;100.63;44.93;;;6.40;99.90;;;;;;5143739;27;20162;-90
2022/01/17 05:39:25;;;;;;;105.07;46.83;;;6.40;99.90;;;;;;5146399;27;20158;-83
2022/01/17 05:42:04;;;;;;;100.87;47.30;;;6.40;99.90;;;;;;5145788;27;20157;-87
2022/01/17 05:44:33;;;;;;;101.87;46.53;;;6.40;99.90;;;;;;5145419;27;20161;-94
2022/01/17 05:47:00;;;;;;;113.80;47.73;;;6.50;99.90;;;;;;5156423;27;20206;-84
2022/01/17 05:49:26;;;;;;;115.83;49.03;;;6.40;99.90;;;;;;5169405;27;20276;-94
2022/01/17 05:51:55;;;;;;;118.63;47.40;;;6.50;99.90;;;;;;5144722;27;20181;-94
2022/01/17 05:54:21;;;;;;;117.27;51.00;;;6.40;99.90;;;;;;5144108;27;20182;-84
2022/01/17 05:56:47;;;;;;;118.83;49.37;;;6.50;99.90;;;;;;5146770;27;20162;-84
2022/01/17 05:59:14;;;;;;;119.70;50.23;;;6.50;99.90;;;;;;5167925;27;20161;-89
2022/01/17 06:01:42;;;;;;;116.47;49.80;;;6.50;99.90;;;;;;5130555;27;20181;-86
2022/01/17 06:04:20;;;;;;;108.67;49.40;;;6.40;99.90;;;;;;5164773;27;20173;-84
2022/01/17 06:06:47;;;;;;;118.10;50.93;;;6.40;99.90;;;;;;5163940;27;20221;-82
2022/01/17 06:09:16;;;;;;;107.67;49.53;;;6.50;99.90;;;;;;5147311;27;20176;-83
2022/01/17 06:11:45;;;;;;;113.20;49.83;;;6.50;99.90;;;;;;5157251;27;20256;-82
2022/01/17 06:14:18;;;;;;;115.93;49.07;;;6.40;99.90;;;;;;5157420;27;20145;-86
2022/01/17 06:17:20;;;;;;;115.60;47.97;;;6.40;99.90;;;;;;5168400;27;20525;-83
2022/01/17 06:20:06;;;;;;;125.63;50.43;;;6.50;99.90;;;;;;5150813;27;20166;-92
2022/01/17 06:22:36;;;;;;;119.40;52.13;;;6.70;99.90;;;;;;5149731;27;20599;-83
2022/01/17 06:25:05;;;;;;;120.37;53.30;;;6.70;99.90;;;;;;5147260;27;20170;-88
2022/01/17 06:27:30;;;;;;;119.27;50.00;;;6.80;99.90;;;;;;5147676;27;20297;-91
2022/01/17 06:29:59;;;;;;;114.67;51.70;;;6.80;99.90;;;;;;5132442;27;20189;-83
2022/01/17 06:32:26;;;;;;;121.47;51.30;;;7.00;99.90;;;;;;5119682;27;20182;-86
2022/01/17 06:34:54;;;;;;;111.37;51.50;;;6.90;99.90;;;;;;5164772;27;20142;-82
2022/01/17 06:37:20;;;;;;;114.77;52.97;;;6.90;99.90;;;;;;5174269;27;20198;-82
2022/01/17 06:39:49;;;;;;;112.93;52.57;;;6.90;99.90;;;;;;5154049;27;20174;-83
2022/01/17 06:42:17;;;;;;;109.50;53.40;;;6.90;99.90;;;;;;5133444;27;20661;-83
2022/01/17 06:44:43;;;;;;;108.10;51.00;;;6.80;99.90;;;;;;5143751;27;20582;-81
2022/01/17 06:47:09;;;;;;;102.00;50.80;;;6.90;99.90;;;;;;5146150;27;20262;-82
2022/01/17 06:49:34;;;;;;;108.97;53.77;;;7.00;99.90;;;;;;5177541;27;20169;-84
2022/01/17 06:52:00;;;;;;;114.67;54.37;;;7.10;99.90;;;;;;5179405;27;20165;-85
2022/01/17 06:54:26;;;;;;;100.07;53.10;;;7.30;99.90;;;;;;5164349;27;20245;-83
2022/01/17 06:56:54;;;;;;;103.10;51.93;;;7.30;99.90;;;;;;5175842;27;20622;-84
2022/01/17 06:59:20;;;;;;;105.07;52.77;;;7.10;99.90;;;;;;5169363;27;20169;-89
2022/01/17 07:01:47;;;;;;;103.50;55.03;;;7.00;99.90;;;;;;5130702;27;20197;-84
2022/01/17 07:04:13;;;;;;;111.97;53.07;;;7.00;99.90;;;;;;5171336;27;20191;-85
2022/01/17 07:06:39;;;;;;;100.80;52.03;;;6.90;99.90;;;;;;5147710;27;20205;-83
2022/01/17 07:09:11;;;;;;;106.40;53.87;;;7.10;99.90;;;;;;5145289;27;20173;-90
2022/01/17 07:11:44;;;;;;;105.40;52.40;;;7.10;99.90;;;;;;5145411;27;20233;-89
2022/01/17 07:14:11;;;;;;;100.13;53.30;;;7.00;99.90;;;;;;5159091;27;20170;-84
2022/01/17 07:16:41;;;;;;;102.30;53.40;;;7.00;99.90;;;;;;5180912;27;20165;-81
2022/01/17 07:19:07;;;;;;;95.03;52.17;;;7.10;99.90;;;;;;5171969;27;20173;-87
2022/01/17 07:21:36;;;;;;;100.17;51.60;;;7.10;99.90;;;;;;5159394;27;20182;-81
2022/01/17 07:24:35;;;;;;;96.40;49.40;;;7.00;99.90;;;;;;5142075;27;20222;-87
2022/01/17 07:27:03;;;;;;;93.17;49.10;;;6.90;99.90;;;;;;5139425;27;20286;-93
2022/01/17 07:29:30;;;;;;;92.07;50.03;;;7.00;99.90;;;;;;5142195;27;20166;-85
2022/01/17 07:31:57;;;;;;;84.87;49.67;;;6.90;99.90;;;;;;5159266;27;20185;-94
2022/01/17 07:34:25;;;;;;;82.33;49.37;;;6.90;99.90;;;;;;5166847;27;20705;-83
2022/01/17 07:36:51;;;;;;;93.57;48.93;;;6.80;99.90;;;;;;5128686;27;20159;-83
2022/01/17 07:39:37;;;;;;;84.10;49.37;;;6.80;99.90;;;;;;5157012;27;20515;-94
2022/01/17 07:42:15;;;;;;;82.23;48.70;;;7.10;99.90;;;;;;5167676;27;20171;-85
2022/01/17 07:44:52;;;;;;;81.23;46.57;;;7.10;99.90;;;;;;5163864;27;20165;-89
2022/01/17 07:47:24;;;;;;;82.80;47.33;;;7.10;99.90;;;;;;5184819;27;20240;-87
2022/01/17 07:49:50;;;;;;;76.13;47.17;;;7.10;99.90;;;;;;5166119;27;20165;-93
2022/01/17 07:52:17;;;;;;;65.77;41.10;;;7.10;99.90;;;;;;5165117;27;20214;-88
2022/01/17 07:54:47;;;;;;;77.53;45.93;;;7.10;99.90;;;;;;5143491;27;20213;-84
2022/01/17 07:57:14;;;;;;;69.93;43.90;;;7.10;99.90;;;;;;5133977;27;20303;-85
2022/01/17 07:59:43;;;;;;;69.00;42.30;;;7.10;99.90;;;;;;5160047;27;20208;-90
2022/01/17 08:02:09;;;;;;;73.67;43.17;;;7.10;99.90;;;;;;5161197;27;20174;-89
2022/01/17 08:04:35;;;;;;;75.60;43.50;;;7.10;99.90;;;;;;5145816;27;20267;-87
2022/01/17 08:07:00;;;;;;;58.73;37.27;;;7.10;99.90;;;;;;5167426;27;20212;-82
2022/01/17 08:09:30;;;;;;;56.53;35.10;;;7.00;99.90;;;;;;5167193;27;20252;-86
2022/01/17 08:12:01;;;;;;;54.10;33.73;;;7.20;99.90;;;;;;5142146;27;20191;-83
2022/01/17 08:14:27;;;;;;;56.47;36.43;;;7.10;99.90;;;;;;5147110;27;20508;-90
2022/01/17 08:16:54;;;;;;;51.80;34.60;;;7.10;99.90;;;;;;5155279;27;20192;-84
2022/01/17 08:19:24;;;;;;;56.30;36.60;;;7.10;99.90;;;;;;5157341;27;20170;-84
2022/01/17 08:21:53;;;;;;;60.10;39.37;;;7.10;99.90;;;;;;5151972;27;20161;-86
2022/01/17 08:24:21;;;;;;;56.17;38.27;;;7.20;99.90;;;;;;5147001;27;20176;-92
2022/01/17 08:27:04;;;;;;;61.97;38.97;;;7.20;99.90;;;;;;5161988;27;20217;-91
2022/01/17 08:29:33;;;;;;;53.70;36.40;;;7.30;99.90;;;;;;5163023;27;20302;-82
2022/01/17 08:32:04;;;;;;;59.93;39.03;;;7.30;99.90;;;;;;5152526;27;20165;-82
2022/01/17 08:34:31;;;;;;;60.20;38.37;;;7.30;99.90;;;;;;5147652;27;20174;-85
2022/01/17 08:36:57;;;;;;;58.30;39.60;;;7.40;99.90;;;;;;5141671;27;20189;-85
2022/01/17 08:39:24;;;;;;;55.43;38.23;;;7.50;99.90;;;;;;5144902;27;20181;-85
2022/01/17 08:41:50;;;;;;;55.10;37.50;;;7.40;99.90;;;;;;5161716;27;20177;-85
2022/01/17 08:44:19;;;;;;;52.60;36.03;;;7.40;99.90;;;;;;5158430;27;20178;-88
2022/01/17 08:46:46;;;;;;;54.60;35.70;;;7.60;99.90;;;;;;5139996;27;20247;-88
2022/01/17 08:49:12;;;;;;;57.10;35.17;;;7.60;99.90;;;;;;5159264;27;20166;-87
2022/01/17 08:51:38;;;;;;;51.93;35.03;;;7.50;99.90;;;;;;5162146;27;20184;-82
2022/01/17 08:54:05;;;;;;;53.03;35.43;;;7.50;99.90;;;;;;5176573;27;20847;-87
2022/01/17 08:56:32;;;;;;;48.97;33.13;;;7.50;99.90;;;;;;5161036;27;20170;-82
2022/01/17 08:59:04;;;;;;;53.70;35.30;;;7.60;99.90;;;;;;5178596;27;20177;-81
2022/01/17 09:01:37;;;;;;;56.87;38.57;;;7.60;99.90;;;;;;5148925;27;20154;-80
2022/01/17 09:04:03;;;;;;;48.97;33.27;;;7.60;99.90;;;;;;5176699;27;20223;-81
2022/01/17 09:06:28;;;;;;;57.53;39.07;;;7.50;99.90;;;;;;5153085;27;20201;-80
2022/01/17 09:08:54;;;;;;;57.97;39.50;;;7.60;99.90;;;;;;5170159;27;20192;-84
2022/01/17 09:11:20;;;;;;;56.97;37.50;;;7.50;99.90;;;;;;5156671;27;20533;-80
2022/01/17 09:13:52;;;;;;;83.27;48.77;;;7.40;99.90;;;;;;5170454;27;20182;-80
2022/01/17 09:16:22;;;;;;;55.43;33.67;;;7.50;99.90;;;;;;5147720;27;20177;-85
2022/01/17 09:18:49;;;;;;;52.70;31.43;;;7.50;99.90;;;;;;5160553;27;20169;-80
2022/01/17 09:21:18;;;;;;;46.60;29.80;;;7.50;99.90;;;;;;5140136;27;20185;-86
2022/01/17 09:23:54;;;;;;;49.27;29.23;;;7.40;99.90;;;;;;5163300;27;20175;-88
2022/01/17 09:26:34;;;;;;;45.93;27.50;;;7.40;99.90;;;;;;5163116;27;20207;-90
2022/01/17 09:29:00;;;;;;;43.33;25.70;;;7.30;99.90;;;;;;5140992;27;20182;-80
2022/01/17 09:31:28;;;;;;;45.00;26.13;;;7.20;99.90;;;;;;5144756;27;20184;-90
2022/01/17 09:33:54;;;;;;;46.57;26.17;;;7.30;99.90;;;;;;5147438;27;20203;-80
2022/01/17 09:36:23;;;;;;;41.23;25.13;;;7.30;99.90;;;;;;5138562;27;20284;-80
2022/01/17 09:38:49;;;;;;;42.37;27.10;;;7.20;99.90;;;;;;5137974;27;20230;-82
2022/01/17 09:41:17;;;;;;;60.33;34.27;;;7.30;99.90;;;;;;5156603;27;20165;-86
2022/01/17 09:43:43;;;;;;;45.17;27.37;;;7.40;99.90;;;;;;5156865;27;20178;-82
2022/01/17 09:46:09;;;;;;;43.50;25.40;;;7.40;99.90;;;;;;5152736;27;20199;-81
2022/01/17 09:48:39;;;;;;;36.10;20.10;;;7.50;99.90;;;;;;5166916;27;20256;-81
2022/01/17 09:51:18;;;;;;;35.47;22.03;;;7.50;99.90;;;;;;5174254;27;20242;-89
2022/01/17 09:53:53;;;;;;;35.13;21.77;;;7.60;99.90;;;;;;5160261;27;20177;-88
2022/01/17 09:56:23;;;;;;;33.50;21.03;;;7.60;99.90;;;;;;5157034;27;20245;-88
2022/01/17 09:58:52;;;;;;;33.60;20.07;;;7.60;99.90;;;;;;5156918;27;20189;-90
2022/01/17 10:01:19;;;;;;;38.47;18.80;;;7.60;99.90;;;;;;5144289;27;20536;-85
2022/01/17 10:03:57;;;;;;;28.40;16.03;;;7.70;99.90;;;;;;5152890;27;20197;-86
2022/01/17 10:06:26;;;;;;;29.10;16.27;;;7.70;99.90;;;;;;5178716;27;20201;-87
2022/01/17 10:09:21;;;;;;;34.53;18.07;;;7.50;99.90;;;;;;5155617;27;20674;-89
2022/01/17 10:12:10;;;;;;;33.07;15.77;;;7.70;99.90;;;;;;5148347;27;20205;-85
2022/01/17 10:14:43;;;;;;;27.20;14.47;;;7.80;99.90;;;;;;5123125;28;20171;-86
2022/01/17 10:17:16;;;;;;;30.73;14.37;;;7.70;99.90;;;;;;5158244;27;20177;-82
2022/01/17 10:19:44;;;;;;;29.23;14.10;;;7.60;99.90;;;;;;5157648;27;20195;-80
2022/01/17 10:22:21;;;;;;;27.40;14.43;;;7.50;99.90;;;;;;5158299;27;20174;-88
2022/01/17 10:25:06;;;;;;;30.43;16.23;;;7.50;99.90;;;;;;5124826;27;20181;-87
2022/01/17 10:30:39;;;;;;;25.47;13.97;;;7.50;99.90;;;;;;5176209;27;20233;-84
2022/01/17 10:35:57;;;;;;;24.33;13.93;;;7.50;99.90;;;;;;5162817;27;20169;-87
2022/01/17 10:39:00;;;;;;;23.50;12.57;;;7.50;99.90;;;;;;5141888;27;20193;-83
2022/01/17 10:41:26;;;;;;;29.23;13.67;;;7.50;99.90;;;;;;5141903;27;20173;-90
2022/01/17 10:43:52;;;;;;;23.57;13.27;;;7.50;99.90;;;;;;5161104;27;20181;-85
2022/01/17 10:46:23;;;;;;;28.83;13.77;;;7.50;99.90;;;;;;5140590;27;20246;-87
2022/01/17 10:48:53;;;;;;;27.37;15.00;;;7.60;99.90;;;;;;5160701;27;20190;-85
2022/01/17 10:51:37;;;;;;;24.27;13.20;;;7.80;99.90;;;;;;5160312;27;20158;-83
2022/01/17 10:54:15;;;;;;;22.23;12.47;;;7.70;99.90;;;;;;5140197;27;20684;-85
2022/01/17 10:56:56;;;;;;;28.37;13.23;;;7.80;99.90;;;;;;5152860;27;20165;-88
2022/01/17 10:59:31;;;;;;;24.00;13.47;;;7.70;99.90;;;;;;5141243;27;20188;-84
2022/01/17 11:01:59;;;;;;;24.67;14.90;;;7.80;99.90;;;;;;5160063;27;20252;-82
2022/01/17 11:04:41;;;;;;;28.47;16.73;;;7.80;99.90;;;;;;5161140;27;20205;-85
2022/01/17 11:07:08;;;;;;;28.13;16.47;;;7.80;99.90;;;;;;5142955;27;20205;-82
2022/01/17 11:09:42;;;;;;;27.10;13.20;;;7.70;99.90;;;;;;5142844;27;20201;-85
2022/01/17 11:12:13;;;;;;;27.67;14.47;;;7.70;99.90;;;;;;5161056;27;20198;-85
2022/01/17 11:14:40;;;;;;;24.73;15.60;;;7.70;99.90;;;;;;5141623;27;20246;-84
2022/01/17 11:17:22;;;;;;;41.63;20.70;;;7.60;99.90;;;;;;5161253;27;20622;-81
2022/01/17 11:20:07;;;;;;;28.30;13.93;;;7.60;99.90;;;;;;5144511;27;20177;-81
2022/01/17 11:22:39;;;;;;;24.30;11.97;;;7.70;99.90;;;;;;5166335;27;20199;-84
2022/01/17 11:25:07;;;;;;;23.03;11.30;;;7.70;99.90;;;;;;5141441;27;20173;-87
2022/01/17 11:27:55;;;;;;;19.93;11.00;;;7.70;99.90;;;;;;5158678;27;20194;-81
2022/01/17 11:30:22;;;;;;;23.17;10.97;;;7.80;99.90;;;;;;5139377;27;20633;-87
2022/01/17 11:32:50;;;;;;;17.83;10.73;;;7.90;99.70;;;;;;5138711;27;20184;-85
2022/01/17 11:35:20;;;;;;;19.23;9.60;;;8.00;99.80;;;;;;5140313;27;20177;-87
2022/01/17 11:38:13;;;;;;;14.00;9.77;;;7.90;98.50;;;;;;5146563;27;20174;-80
2022/01/17 11:40:41;;;;;;;19.73;10.50;;;8.00;99.40;;;;;;5149620;27;20712;-83
2022/01/17 11:43:34;;;;;;;18.17;10.20;;;8.00;98.80;;;;;;5152820;27;20192;-87
2022/01/17 11:46:18;;;;;;;18.40;10.43;;;8.10;98.50;;;;;;5139479;27;20180;-84
2022/01/17 11:48:54;;;;;;;22.33;10.83;;;8.20;98.60;;;;;;5139792;27;20184;-88
2022/01/17 11:51:20;;;;;;;20.07;12.00;;;8.20;98.70;;;;;;5158434;27;20625;-83
2022/01/17 11:53:48;;;;;;;21.87;10.47;;;8.30;98.30;;;;;;5157990;27;20186;-85
2022/01/17 11:56:35;;;;;;;21.17;10.73;;;8.50;97.90;;;;;;5138878;27;20173;-89
2022/01/17 11:59:01;;;;;;;19.27;11.17;;;8.50;97.40;;;;;;5140604;27;20186;-83
2022/01/17 12:01:26;;;;;;;18.43;10.47;;;8.60;97.00;;;;;;5138969;27;20173;-85
2022/01/17 12:03:55;;;;;;;17.93;11.17;;;8.60;96.90;;;;;;5137167;27;20194;-83
2022/01/17 12:06:32;;;;;;;21.97;11.60;;;8.70;96.50;;;;;;5139510;27;20217;-85
2022/01/17 12:09:21;;;;;;;21.53;10.90;;;8.50;96.70;;;;;;5140661;27;20177;-82
2022/01/17 12:11:49;;;;;;;21.23;10.50;;;8.40;97.00;;;;;;5137139;27;20261;-87
2022/01/17 12:14:33;;;;;;;19.63;11.17;;;8.30;97.60;;;;;;5121808;27;20205;-81
2022/01/17 12:17:23;;;;;;;24.60;11.60;;;8.40;97.70;;;;;;5139352;27;20221;-88
2022/01/17 12:20:13;;;;;;;25.27;10.37;;;8.30;98.00;;;;;;5151468;27;20162;-80
2022/01/17 12:22:39;;;;;;;23.83;10.87;;;8.50;97.80;;;;;;5125492;27;20177;-81
2022/01/17 12:25:30;;;;;;;22.50;11.67;;;8.50;96.90;;;;;;5165938;27;20197;-86
2022/01/17 12:28:16;;;;;;;19.27;10.20;;;8.70;97.00;;;;;;5146268;27;20571;-84
2022/01/17 12:30:56;;;;;;;20.60;11.60;;;8.70;95.80;;;;;;5129573;27;20186;-83
2022/01/17 12:33:28;;;;;;;18.67;10.07;;;8.70;95.80;;;;;;5138291;27;20204;-85
2022/01/17 12:36:00;;;;;;;19.10;10.50;;;8.70;96.30;;;;;;5119816;27;20166;-84
2022/01/17 12:38:46;;;;;;;21.67;9.70;;;8.80;96.40;;;;;;5118613;27;20159;-88
2022/01/17 12:41:32;;;;;;;18.23;9.37;;;9.00;95.30;;;;;;5139144;27;20296;-84
2022/01/17 12:44:22;;;;;;;20.97;9.73;;;9.00;94.50;;;;;;5131453;27;20177;-81
2022/01/17 12:46:54;;;;;;;22.40;10.23;;;8.90;94.10;;;;;;5146240;27;20201;-82
2022/01/17 12:49:21;;;;;;;19.03;9.63;;;8.90;94.70;;;;;;5144715;27;20170;-86
2022/01/17 12:51:50;;;;;;;19.37;10.17;;;9.00;94.10;;;;;;5164098;27;20190;-86
2022/01/17 12:54:20;;;;;;;17.17;9.93;;;9.00;94.50;;;;;;5163694;27;20221;-83
2022/01/17 12:56:50;;;;;;;22.63;10.30;;;8.90;94.80;;;;;;5164904;27;20214;-83
2022/01/17 12:59:17;;;;;;;18.63;9.50;;;8.90;95.00;;;;;;5145347;27;20185;-81
2022/01/17 13:01:50;;;;;;;21.77;10.53;;;9.10;94.40;;;;;;5146449;27;20162;-85
2022/01/17 13:04:17;;;;;;;24.30;9.37;;;9.20;93.70;;;;;;5160504;27;20711;-82
2022/01/17 13:06:45;;;;;;;18.83;9.17;;;9.20;93.20;;;;;;5125999;27;20212;-86
2022/01/17 13:09:20;;;;;;;22.03;9.73;;;9.20;93.20;;;;;;5169052;27;20252;-84
2022/01/17 13:11:47;;;;;;;16.93;8.93;;;9.30;92.90;;;;;;5174899;27;20150;-83
2022/01/17 13:14:21;;;;;;;18.43;8.60;;;9.30;92.40;;;;;;5148098;27;20205;-83
2022/01/17 13:16:51;;;;;;;22.63;8.67;;;9.30;91.80;;;;;;5147156;27;20169;-82
2022/01/17 13:19:39;;;;;;;22.63;9.17;;;9.40;92.00;;;;;;5146437;27;20180;-84
2022/01/17 13:22:06;;;;;;;17.53;8.60;;;9.40;91.70;;;;;;5162777;27;20257;-81
2022/01/17 13:24:36;;;;;;;17.27;9.03;;;9.50;90.60;;;;;;5146611;27;20201;-84
2022/01/17 13:27:11;;;;;;;17.87;8.63;;;9.50;90.80;;;;;;5164983;27;20185;-86
2022/01/17 13:29:39;;;;;;;18.20;8.80;;;9.50;90.70;;;;;;5150326;27;20168;-83
2022/01/17 13:32:08;;;;;;;20.10;9.60;;;9.60;90.60;;;;;;5161003;27;20192;-82